createdAt,value
2022-08-08T00:01:08.147Z,16.30
2022-08-08T00:06:28.520Z,16.10
2022-08-08T00:11:47.018Z,16.00
2022-08-08T00:17:23.358Z,15.80
2022-08-08T00:22:31.693Z,15.70
2022-08-08T00:27:36.905Z,15.60
2022-08-08T00:32:45.423Z,15.50
2022-08-08T00:38:05.437Z,15.30
2022-08-08T00:43:45.954Z,15.10
2022-08-08T00:49:23.159Z,15.00
2022-08-08T00:55:02.559Z,14.70
2022-08-08T01:00:13.339Z,14.60
2022-08-08T01:05:59.545Z,14.60
2022-08-08T01:11:41.134Z,14.70
2022-08-08T01:17:35.004Z,14.60
2022-08-08T01:24:03.367Z,14.60
2022-08-08T01:28:59.733Z,14.50
2022-08-08T01:35:00.326Z,14.50
2022-08-08T01:40:19.969Z,14.50
2022-08-08T01:45:41.004Z,14.30
2022-08-08T01:50:57.764Z,14.20
2022-08-08T01:56:29.132Z,14.10
2022-08-08T02:02:00.596Z,13.90
2022-08-08T02:07:10.168Z,13.80
2022-08-08T02:12:23.547Z,13.90
2022-08-08T02:17:42.538Z,14.00
2022-08-08T02:22:54.968Z,13.90
2022-08-08T02:28:01.729Z,13.90
2022-08-08T02:33:14.047Z,13.90
2022-08-08T02:38:44.851Z,13.80
2022-08-08T02:44:35.329Z,13.80
2022-08-08T02:50:18.036Z,13.80
2022-08-08T02:56:00.062Z,13.70
2022-08-08T03:01:32.650Z,13.80
2022-08-08T03:07:06.975Z,13.70
2022-08-08T03:13:01.812Z,13.70
2022-08-08T03:18:13.593Z,13.70
2022-08-08T03:23:17.800Z,13.70
2022-08-08T03:28:24.360Z,13.70
2022-08-08T03:33:55.511Z,13.70
2022-08-08T03:38:56.394Z,13.70
2022-08-08T03:44:01.246Z,13.70
2022-08-08T03:49:56.195Z,13.60
2022-08-08T03:54:41.188Z,13.60
2022-08-08T04:00:02.801Z,13.50
2022-08-08T04:05:12.308Z,13.50
2022-08-08T04:10:16.610Z,13.40
2022-08-08T04:15:22.097Z,13.40
2022-08-08T04:20:28.821Z,13.50
2022-08-08T04:25:32.982Z,13.50
2022-08-08T04:30:44.650Z,13.60
2022-08-08T04:35:51.391Z,13.70
2022-08-08T04:40:55.067Z,13.90
2022-08-08T04:45:57.333Z,14.00
2022-08-08T04:50:59.121Z,14.30
2022-08-08T04:56:03.668Z,14.50
2022-08-08T05:01:08.788Z,14.60
2022-08-08T05:06:25.419Z,14.70
2022-08-08T05:11:29.123Z,14.80
2022-08-08T05:16:53.642Z,14.90
2022-08-08T05:22:02.362Z,15.10
2022-08-08T05:27:06.374Z,15.20
2022-08-08T05:32:08.801Z,15.40
2022-08-08T05:37:17.222Z,15.70
2022-08-08T05:42:30.095Z,15.80
2022-08-08T05:47:52.676Z,16.00
2022-08-08T05:52:55.512Z,16.10
2022-08-08T05:58:05.944Z,16.50
2022-08-08T06:03:24.902Z,16.80
2022-08-08T06:08:34.805Z,17.10
2022-08-08T06:13:47.483Z,17.50
2022-08-08T06:18:51.347Z,17.70
2022-08-08T06:24:04.786Z,17.90
2022-08-08T06:29:26.903Z,18.10
2022-08-08T06:34:35.249Z,18.40
2022-08-08T06:39:56.027Z,18.60
2022-08-08T06:45:01.135Z,18.70
2022-08-08T06:50:09.560Z,18.90
2022-08-08T06:55:16.562Z,19.20
2022-08-08T07:00:30.392Z,19.50
2022-08-08T07:05:40.061Z,19.60
2022-08-08T07:10:48.616Z,19.60
2022-08-08T07:16:05.126Z,19.80
2022-08-08T07:21:19.367Z,20.00
2022-08-08T07:26:33.011Z,20.40
2022-08-08T07:31:40.459Z,20.50
2022-08-08T07:36:50.128Z,20.60
2022-08-08T07:42:03.730Z,20.70
2022-08-08T07:47:08.949Z,20.90
2022-08-08T07:52:22.833Z,21.20
2022-08-08T07:57:35.914Z,21.50
2022-08-08T08:02:42.786Z,21.60
2022-08-08T08:07:54.686Z,21.90
2022-08-08T08:13:09.670Z,22.40
2022-08-08T08:18:31.648Z,22.60
2022-08-08T08:23:40.632Z,22.80
2022-08-08T08:28:43.068Z,23.10
2022-08-08T08:33:48.298Z,23.30
2022-08-08T08:38:54.104Z,23.80
2022-08-08T08:44:14.366Z,24.00
2022-08-08T08:49:18.651Z,24.10
2022-08-08T08:54:25.057Z,24.20
2022-08-08T08:59:58.661Z,24.50
2022-08-08T09:04:57.473Z,24.60
2022-08-08T09:10:00.168Z,25.10
2022-08-08T09:15:08.061Z,25.10
2022-08-08T09:21:57.613Z,25.50
2022-08-08T09:25:55.034Z,25.60
2022-08-08T09:31:14.290Z,25.90
2022-08-08T09:36:22.444Z,26.40
2022-08-08T09:42:14.030Z,26.50
2022-08-08T09:47:05.079Z,26.90
2022-08-08T09:52:11.334Z,27.30
2022-08-08T09:57:46.132Z,27.20
2022-08-08T10:02:51.556Z,27.30
2022-08-08T10:07:59.888Z,27.40
2022-08-08T10:13:22.689Z,27.60
2022-08-08T10:18:34.006Z,27.70
2022-08-08T10:23:48.260Z,27.90
2022-08-08T10:29:02.633Z,27.90
2022-08-08T10:34:18.692Z,28.10
2022-08-08T10:39:43.157Z,28.30
2022-08-08T10:44:49.243Z,28.40
2022-08-08T10:50:01.506Z,28.60
2022-08-08T10:55:07.669Z,28.40
2022-08-08T11:00:13.448Z,28.60
2022-08-08T11:05:18.103Z,29.00
2022-08-08T11:10:29.322Z,29.10
2022-08-08T11:15:31.601Z,29.10
2022-08-08T11:20:33.853Z,29.20
2022-08-08T11:25:52.639Z,29.10
2022-08-08T11:30:59.905Z,29.30
2022-08-08T11:36:41.963Z,29.40
2022-08-08T11:42:00.730Z,29.70
2022-08-08T11:47:12.964Z,29.80
2022-08-08T11:52:26.919Z,30.10
2022-08-08T11:57:35.085Z,30.20
2022-08-08T12:02:46.312Z,30.40
2022-08-08T12:07:51.804Z,30.30
2022-08-08T12:18:45.708Z,30.00
2022-08-08T12:24:00.353Z,30.00
2022-08-08T12:29:19.237Z,30.40
2022-08-08T12:34:36.297Z,30.40
2022-08-08T12:39:59.778Z,30.30
2022-08-08T12:45:19.878Z,30.30
2022-08-08T12:50:46.769Z,30.70
2022-08-08T12:56:08.734Z,30.40
2022-08-08T13:01:50.129Z,30.30
2022-08-08T13:07:03.178Z,30.60
2022-08-08T13:12:28.028Z,30.40
2022-08-08T13:18:08.618Z,30.70
2022-08-08T13:23:30.020Z,30.70
2022-08-08T13:28:28.504Z,30.60
2022-08-08T13:33:42.209Z,30.80
2022-08-08T13:38:45.248Z,30.80
2022-08-08T13:43:49.650Z,30.90
2022-08-08T13:49:11.219Z,30.60
2022-08-08T13:54:20.685Z,30.50
2022-08-08T13:59:32.869Z,30.80
2022-08-08T14:04:36.710Z,30.90
2022-08-08T14:10:05.096Z,31.30
2022-08-08T14:15:00.731Z,31.20
2022-08-08T14:20:14.792Z,31.10
2022-08-08T14:25:30.939Z,31.30
2022-08-08T14:30:34.276Z,31.40
2022-08-08T14:35:37.509Z,31.40
2022-08-08T14:40:41.256Z,31.00
2022-08-08T14:46:02.613Z,31.20
2022-08-08T14:51:07.698Z,30.90
2022-08-08T14:56:10.160Z,30.70
2022-08-08T15:01:23.549Z,30.80
2022-08-08T15:06:27.556Z,30.80
2022-08-08T15:11:29.895Z,30.80
2022-08-08T15:16:44.464Z,30.60
2022-08-08T15:21:47.903Z,30.60
2022-08-08T15:26:52.695Z,30.50
2022-08-08T15:32:17.825Z,30.70
2022-08-08T15:37:19.143Z,30.40
2022-08-08T15:42:31.781Z,30.40
2022-08-08T15:47:34.509Z,30.40
2022-08-08T15:52:37.623Z,30.30
2022-08-08T15:57:41.161Z,30.20
2022-08-08T16:02:44.601Z,30.10
2022-08-08T16:07:54.587Z,29.90
2022-08-08T16:13:09.813Z,29.80
2022-08-08T16:18:18.462Z,29.70
2022-08-08T16:23:23.129Z,29.70
2022-08-08T16:28:35.605Z,29.40
2022-08-08T16:33:40.384Z,29.10
2022-08-08T16:38:47.297Z,29.00
2022-08-08T16:43:55.361Z,28.70
2022-08-08T16:48:57.267Z,28.70
2022-08-08T16:55:04.910Z,28.20
2022-08-08T16:59:23.262Z,28.20
2022-08-08T17:04:42.171Z,28.10
2022-08-08T17:09:52.264Z,27.50
2022-08-08T17:14:54.177Z,26.30
2022-08-08T17:19:56.939Z,25.40
2022-08-08T17:25:00.291Z,24.80
2022-08-08T17:30:08.484Z,24.10
2022-08-08T17:35:54.662Z,23.60
2022-08-08T17:40:36.574Z,23.20
2022-08-08T17:45:38.423Z,22.90
2022-08-08T17:50:42.001Z,23.00
2022-08-08T17:56:05.926Z,23.20
2022-08-08T18:01:10.179Z,23.20
2022-08-08T18:06:22.167Z,23.10
2022-08-08T18:11:36.523Z,22.60
2022-08-08T18:16:41.283Z,22.40
2022-08-08T18:22:01.063Z,23.10
2022-08-08T18:27:06.193Z,23.60
2022-08-08T18:34:10.593Z,23.50
2022-08-08T19:56:00.874Z,23.60
2022-08-08T21:22:12.815Z,21.80
2022-08-08T21:54:17.272Z,21.50
2022-08-08T22:09:45.077Z,21.60
2022-08-08T22:20:41.686Z,21.50
2022-08-08T22:26:27.037Z,21.30
2022-08-08T22:37:48.911Z,21.10
2022-08-08T22:42:37.749Z,21.00
2022-08-08T22:47:46.716Z,21.00
2022-08-08T22:53:22.299Z,20.90
2022-08-08T22:58:12.788Z,20.80
2022-08-08T23:03:15.173Z,20.70
2022-08-08T23:08:20.193Z,20.60
2022-08-08T23:13:22.080Z,20.50
2022-08-08T23:18:23.905Z,20.50
2022-08-08T23:23:30.235Z,20.40
2022-08-08T23:35:34.359Z,20.30
2022-08-08T23:41:25.319Z,20.30
